createdAt,value
2023-02-03T00:00:31.793Z,89.21
2023-02-03T00:02:59.658Z,89.88
2023-02-03T00:05:29.473Z,89.51
2023-02-03T00:07:57.508Z,89.45
2023-02-03T00:10:25.662Z,90.09
2023-02-03T00:12:53.966Z,89.47
2023-02-03T00:15:23.238Z,88.96
2023-02-03T00:17:51.062Z,89.35
2023-02-03T00:20:19.105Z,89.30
2023-02-03T00:22:48.191Z,88.94
2023-02-03T00:25:16.134Z,89.01
2023-02-03T00:27:43.891Z,89.06
2023-02-03T00:30:12.797Z,89.33
2023-02-03T00:32:40.580Z,89.42
2023-02-03T00:35:09.000Z,89.08
2023-02-03T00:37:36.689Z,89.24
2023-02-03T00:40:06.720Z,88.46
2023-02-03T00:42:35.675Z,88.80
2023-02-03T00:45:03.598Z,88.41
2023-02-03T00:47:31.552Z,88.74
2023-02-03T00:49:59.455Z,89.01
2023-02-03T00:52:27.236Z,88.98
2023-02-03T00:54:55.016Z,88.82
2023-02-03T00:57:24.361Z,88.70
2023-02-03T00:59:52.216Z,88.69
2023-02-03T01:02:20.029Z,89.00
2023-02-03T01:04:47.895Z,89.06
2023-02-03T01:07:15.692Z,88.76
2023-02-03T01:09:43.511Z,88.69
2023-02-03T01:12:11.199Z,88.43
2023-02-03T01:14:40.367Z,88.71
2023-02-03T01:17:08.157Z,88.90
2023-02-03T01:19:36.256Z,88.58
2023-02-03T01:22:04.006Z,88.58
2023-02-03T01:24:32.256Z,88.35
2023-02-03T01:27:00.118Z,88.56
2023-02-03T01:29:27.911Z,88.50
2023-02-03T01:31:57.184Z,88.22
2023-02-03T01:34:24.980Z,88.30
2023-02-03T01:36:53.323Z,88.10
2023-02-03T01:39:21.555Z,88.24
2023-02-03T01:41:49.366Z,88.09
2023-02-03T01:44:52.446Z,88.08
2023-02-03T01:47:29.540Z,87.93
2023-02-03T01:50:04.009Z,88.36
2023-02-03T01:52:33.673Z,87.74
2023-02-03T01:55:06.310Z,87.70
2023-02-03T01:57:37.855Z,87.96
2023-02-03T02:00:08.208Z,87.48
2023-02-03T02:02:38.147Z,87.41
2023-02-03T02:05:08.033Z,87.57
2023-02-03T02:07:38.270Z,87.55
2023-02-03T02:10:07.040Z,87.45
2023-02-03T02:12:34.883Z,86.99
2023-02-03T02:15:03.593Z,86.95
2023-02-03T02:17:47.364Z,87.63
2023-02-03T02:20:39.619Z,87.35
2023-02-03T02:23:53.697Z,87.28
2023-02-03T02:26:40.667Z,87.40
2023-02-03T02:29:35.295Z,87.40
2023-02-03T02:32:16.447Z,87.59
2023-02-03T02:35:00.545Z,87.30
2023-02-03T02:37:38.344Z,87.31
2023-02-03T02:40:13.881Z,87.52
2023-02-03T02:42:49.468Z,87.17
2023-02-03T02:45:26.418Z,87.64
2023-02-03T02:48:01.105Z,87.27
2023-02-03T02:50:34.114Z,87.20
2023-02-03T02:53:03.349Z,87.04
2023-02-03T02:55:35.067Z,87.21
2023-02-03T02:58:07.887Z,87.02
2023-02-03T03:00:37.065Z,87.21
2023-02-03T03:03:14.565Z,87.17
2023-02-03T03:05:44.565Z,87.27
2023-02-03T03:08:14.283Z,86.55
2023-02-03T03:10:44.469Z,87.04
2023-02-03T03:13:18.028Z,86.84
2023-02-03T03:15:46.681Z,86.70
2023-02-03T03:18:19.746Z,86.17
2023-02-03T03:20:51.945Z,86.68
2023-02-03T03:23:25.618Z,86.42
2023-02-03T03:26:00.354Z,86.51
2023-02-03T03:28:36.635Z,86.46
2023-02-03T03:31:05.140Z,85.88
2023-02-03T03:33:34.481Z,86.21
2023-02-03T03:36:09.226Z,86.50
2023-02-03T03:38:41.203Z,86.22
2023-02-03T03:41:14.868Z,86.09
2023-02-03T03:43:46.345Z,85.92
2023-02-03T03:46:17.483Z,86.05
2023-02-03T03:48:53.158Z,85.49
2023-02-03T03:51:25.658Z,86.06
2023-02-03T03:53:53.881Z,85.72
2023-02-03T03:56:28.532Z,85.36
2023-02-03T03:58:57.590Z,85.22
2023-02-03T04:01:27.388Z,85.25
2023-02-03T04:04:02.506Z,85.66
2023-02-03T04:06:30.312Z,85.07
2023-02-03T04:08:58.453Z,85.58
2023-02-03T04:11:47.596Z,85.02
2023-02-03T04:14:15.786Z,85.51
2023-02-03T04:16:44.010Z,85.08
2023-02-03T04:19:13.649Z,85.14
2023-02-03T04:21:50.413Z,85.05
2023-02-03T04:24:35.707Z,85.35
2023-02-03T04:27:05.271Z,85.04
2023-02-03T04:29:33.503Z,85.13
2023-02-03T04:32:01.406Z,85.35
2023-02-03T04:34:30.723Z,85.23
2023-02-03T04:36:58.602Z,85.20
2023-02-03T04:39:26.462Z,84.86
2023-02-03T04:41:54.422Z,84.86
2023-02-03T04:44:22.423Z,84.32
2023-02-03T04:46:50.369Z,84.50
2023-02-03T04:49:18.740Z,85.07
2023-02-03T04:51:50.082Z,84.49
2023-02-03T04:54:17.915Z,84.81
2023-02-03T04:56:45.784Z,84.77
2023-02-03T04:59:13.878Z,84.49
2023-02-03T05:01:41.743Z,84.65
2023-02-03T05:04:09.582Z,85.04
2023-02-03T05:06:37.499Z,85.01
2023-02-03T05:09:06.859Z,84.57
2023-02-03T05:11:34.828Z,84.58
2023-02-03T05:14:02.672Z,84.74
2023-02-03T05:16:30.559Z,84.62
2023-02-03T05:18:58.388Z,84.45
2023-02-03T05:21:26.261Z,84.54
2023-02-03T05:23:54.151Z,84.49
2023-02-03T05:26:23.421Z,84.04
2023-02-03T05:28:53.154Z,84.27
2023-02-03T05:31:21.473Z,84.52
2023-02-03T05:33:49.522Z,84.52
2023-02-03T05:36:17.371Z,84.21
2023-02-03T05:38:45.196Z,83.95
2023-02-03T05:41:31.190Z,83.76
2023-02-03T05:44:00.699Z,83.69
2023-02-03T05:46:28.594Z,83.54
2023-02-03T05:48:56.639Z,84.00
2023-02-03T05:51:25.161Z,83.75
2023-02-03T05:53:53.826Z,83.87
2023-02-03T05:56:21.783Z,83.67
2023-02-03T05:58:51.424Z,83.66
2023-02-03T06:01:20.721Z,83.61
2023-02-03T06:03:48.979Z,83.33
2023-02-03T06:06:17.149Z,83.52
2023-02-03T06:08:45.167Z,83.59
2023-02-03T06:11:13.172Z,83.14
2023-02-03T06:13:41.149Z,83.40
2023-02-03T06:16:09.420Z,83.28
2023-02-03T06:18:38.733Z,83.19
2023-02-03T06:21:07.205Z,83.18
2023-02-03T06:23:35.205Z,83.62
2023-02-03T06:26:03.073Z,83.03
2023-02-03T06:28:33.599Z,83.12
2023-02-03T06:31:02.308Z,83.10
2023-02-03T06:33:30.247Z,83.18
2023-02-03T06:35:59.763Z,83.53
2023-02-03T06:38:27.809Z,83.05
2023-02-03T06:40:55.691Z,83.37
2023-02-03T06:43:23.857Z,83.26
2023-02-03T06:45:51.791Z,83.16
2023-02-03T06:48:19.718Z,83.48
2023-02-03T06:50:48.742Z,83.32
2023-02-03T06:53:18.086Z,83.47
2023-02-03T06:55:47.923Z,83.44
2023-02-03T06:58:15.871Z,83.76
2023-02-03T07:00:43.710Z,83.37
2023-02-03T07:03:11.445Z,83.15
2023-02-03T07:05:40.721Z,83.41
2023-02-03T07:08:08.468Z,83.87
2023-02-03T07:10:37.556Z,83.45
2023-02-03T07:13:05.919Z,83.54
2023-02-03T07:15:33.727Z,83.68
2023-02-03T07:18:01.478Z,82.97
2023-02-03T07:20:30.256Z,83.49
2023-02-03T07:22:59.294Z,83.29
2023-02-03T07:25:27.341Z,83.38
2023-02-03T07:27:56.612Z,83.28
2023-02-03T07:30:24.475Z,82.92
2023-02-03T07:32:53.525Z,83.14
2023-02-03T07:35:21.755Z,82.84
2023-02-03T07:37:49.595Z,83.14
2023-02-03T07:40:17.931Z,83.11
2023-02-03T07:42:46.220Z,83.08
2023-02-03T07:45:17.008Z,83.45
2023-02-03T07:47:45.274Z,82.90
2023-02-03T07:50:13.412Z,82.80
2023-02-03T07:52:41.312Z,82.53
2023-02-03T07:55:10.177Z,82.49
2023-02-03T07:57:38.132Z,83.16
2023-02-03T08:00:06.607Z,82.75
2023-02-03T08:02:35.768Z,82.69
2023-02-03T08:05:03.568Z,82.51
2023-02-03T08:07:31.396Z,82.43
2023-02-03T08:09:59.187Z,82.66
2023-02-03T08:12:27.094Z,82.50
2023-02-03T08:14:54.898Z,82.55
2023-02-03T08:17:22.766Z,82.86
2023-02-03T08:19:52.170Z,82.46
2023-02-03T08:22:20.236Z,82.88
2023-02-03T08:24:48.661Z,82.75
2023-02-03T08:27:17.992Z,82.11
2023-02-03T08:29:47.066Z,82.56
2023-02-03T08:32:16.576Z,82.59
2023-02-03T08:34:44.426Z,82.51
2023-02-03T08:37:15.904Z,82.41
2023-02-03T08:39:45.038Z,82.34
2023-02-03T08:42:12.829Z,82.02
2023-02-03T08:44:40.682Z,81.92
2023-02-03T08:47:08.989Z,82.16
2023-02-03T08:49:39.522Z,81.86
2023-02-03T08:52:09.144Z,82.21
2023-02-03T08:54:38.748Z,82.13
2023-02-03T08:57:07.271Z,82.41
2023-02-03T08:59:36.364Z,82.13
2023-02-03T09:02:04.507Z,82.48
2023-02-03T09:04:33.466Z,82.02
2023-02-03T09:07:03.447Z,82.11
2023-02-03T09:09:32.058Z,82.35
2023-02-03T09:12:05.309Z,82.54
2023-02-03T09:14:34.362Z,82.50
2023-02-03T09:17:03.270Z,81.88
2023-02-03T09:19:32.268Z,82.29
2023-02-03T09:22:01.133Z,81.93
2023-02-03T09:24:29.147Z,82.35
2023-02-03T09:26:57.016Z,82.40
2023-02-03T09:29:26.058Z,82.01
2023-02-03T09:31:53.915Z,82.26
2023-02-03T09:34:22.350Z,82.21
2023-02-03T09:36:51.326Z,82.21
2023-02-03T09:39:19.146Z,82.18
2023-02-03T09:42:20.804Z,82.60
2023-02-03T09:44:57.719Z,82.21
2023-02-03T09:47:29.589Z,82.36
2023-02-03T09:50:00.283Z,81.84
2023-02-03T09:52:31.908Z,82.13
2023-02-03T09:55:04.257Z,82.35
2023-02-03T09:57:36.588Z,82.08
2023-02-03T10:00:18.050Z,82.27
2023-02-03T10:02:56.863Z,82.59
2023-02-03T10:05:37.131Z,82.03
2023-02-03T10:08:17.485Z,82.31
2023-02-03T10:11:09.453Z,81.82
2023-02-03T10:13:50.822Z,82.35
2023-02-03T10:16:31.461Z,82.52
2023-02-03T10:19:04.382Z,82.31
2023-02-03T10:21:37.090Z,82.18
2023-02-03T10:24:10.731Z,82.31
2023-02-03T10:26:40.951Z,82.34
2023-02-03T10:29:19.355Z,81.93
2023-02-03T10:31:49.196Z,82.03
2023-02-03T10:34:19.817Z,82.29
2023-02-03T10:36:56.876Z,82.81
2023-02-03T10:39:37.962Z,81.96
2023-02-03T10:42:07.240Z,82.06
2023-02-03T10:44:39.456Z,82.35
2023-02-03T10:47:24.644Z,82.31
2023-02-03T10:49:53.738Z,82.61
2023-02-03T10:52:31.088Z,82.21
2023-02-03T10:55:00.333Z,82.73
2023-02-03T10:57:30.943Z,82.19
2023-02-03T11:00:22.453Z,82.56
2023-02-03T11:02:58.333Z,82.35
2023-02-03T11:05:26.397Z,82.36
2023-02-03T11:07:55.068Z,82.55
2023-02-03T11:10:34.273Z,82.16
2023-02-03T11:13:14.589Z,82.41
2023-02-03T11:15:52.534Z,82.38
2023-02-03T11:18:39.013Z,82.65
2023-02-03T11:21:17.396Z,82.58
2023-02-03T11:23:55.909Z,82.85
2023-02-03T11:26:27.507Z,83.10
2023-02-03T11:28:59.435Z,83.03
2023-02-03T11:31:29.336Z,83.01
2023-02-03T11:34:03.507Z,82.89
2023-02-03T11:36:33.795Z,82.94
2023-02-03T11:39:21.435Z,82.69
2023-02-03T11:41:49.995Z,82.85
2023-02-03T11:44:22.834Z,82.88
2023-02-03T11:46:54.924Z,82.87
2023-02-03T11:49:52.352Z,82.23
2023-02-03T11:52:48.757Z,82.31
2023-02-03T11:55:25.410Z,81.82
2023-02-03T11:58:08.211Z,82.70
2023-02-03T12:00:42.448Z,82.17
2023-02-03T12:03:30.825Z,82.17
2023-02-03T12:06:25.536Z,82.31
2023-02-03T12:09:07.358Z,82.16
2023-02-03T12:11:50.523Z,82.31
2023-02-03T12:14:33.610Z,81.95
2023-02-03T12:17:23.794Z,82.38
2023-02-03T12:20:07.640Z,82.18
2023-02-03T12:22:45.089Z,82.82
2023-02-03T12:25:34.581Z,82.43
2023-02-03T12:28:27.446Z,82.94
2023-02-03T12:31:04.974Z,82.86
2023-02-03T12:33:39.402Z,82.88
2023-02-03T12:36:11.469Z,82.38
2023-02-03T12:38:45.322Z,82.48
2023-02-03T12:41:17.335Z,82.39
2023-02-03T12:43:49.299Z,82.81
2023-02-03T12:46:20.701Z,82.99
2023-02-03T12:48:54.513Z,82.89
2023-02-03T12:51:32.112Z,83.05
2023-02-03T12:54:05.245Z,83.24
2023-02-03T12:56:40.890Z,82.94
2023-02-03T12:59:16.679Z,83.06
2023-02-03T13:01:50.734Z,82.97
2023-02-03T13:04:27.237Z,82.24
2023-02-03T13:07:01.587Z,82.68
2023-02-03T13:09:34.747Z,82.43
2023-02-03T13:12:09.999Z,82.15
2023-02-03T13:14:43.416Z,81.99
2023-02-03T13:17:16.871Z,82.06
2023-02-03T13:19:49.632Z,82.06
2023-02-03T13:22:18.378Z,81.69
2023-02-03T13:24:51.016Z,81.47
2023-02-03T13:27:43.335Z,81.62
2023-02-03T13:30:43.738Z,81.47
2023-02-03T13:33:56.662Z,81.38
2023-02-03T13:36:42.519Z,81.70
2023-02-03T13:39:37.472Z,81.23
2023-02-03T13:42:31.329Z,81.39
2023-02-03T13:45:05.617Z,81.97
2023-02-03T13:47:34.252Z,81.93
2023-02-03T13:50:05.708Z,83.03
2023-02-03T13:52:37.869Z,84.40
2023-02-03T13:55:07.131Z,85.21
2023-02-03T13:57:38.975Z,85.06
2023-02-03T14:00:28.804Z,85.45
2023-02-03T14:02:57.450Z,86.96
2023-02-03T14:05:48.897Z,86.75
2023-02-03T14:08:51.903Z,85.98
2023-02-03T14:11:41.289Z,84.21
2023-02-03T14:14:45.513Z,83.91
2023-02-03T14:18:03.727Z,84.21
2023-02-03T14:20:51.092Z,85.16
2023-02-03T14:23:27.246Z,85.72
2023-02-03T14:25:58.354Z,86.60
2023-02-03T14:28:30.882Z,86.21
2023-02-03T14:31:07.691Z,86.88
2023-02-03T14:34:12.950Z,86.77
2023-02-03T14:36:48.092Z,86.85
2023-02-03T14:39:56.145Z,87.48
2023-02-03T14:42:53.867Z,87.87
2023-02-03T14:45:40.633Z,87.02
2023-02-03T14:48:26.551Z,87.12
2023-02-03T14:51:09.609Z,86.48
2023-02-03T14:54:02.510Z,86.92
2023-02-03T14:56:55.688Z,87.39
2023-02-03T14:59:27.433Z,86.76
2023-02-03T15:02:17.018Z,86.61
2023-02-03T15:04:46.943Z,86.86
2023-02-03T15:07:37.833Z,86.65
2023-02-03T15:10:13.975Z,86.59
2023-02-03T15:12:46.681Z,86.08
2023-02-03T15:15:19.905Z,85.81
2023-02-03T15:17:47.583Z,86.02
2023-02-03T15:20:33.619Z,85.88
2023-02-03T15:23:01.489Z,85.57
2023-02-03T15:25:31.195Z,85.97
2023-02-03T15:28:16.837Z,85.81
2023-02-03T15:30:45.548Z,85.36
2023-02-03T15:33:16.212Z,85.39
2023-02-03T15:35:49.002Z,85.59
2023-02-03T15:38:21.962Z,85.43
2023-02-03T15:40:54.596Z,85.81
2023-02-03T15:43:25.872Z,85.73
2023-02-03T15:46:06.349Z,85.39
2023-02-03T15:48:38.475Z,85.22
2023-02-03T15:51:12.003Z,84.99
2023-02-03T15:53:49.578Z,84.99
2023-02-03T15:56:23.611Z,84.88
2023-02-03T15:58:51.661Z,84.50
2023-02-03T16:01:26.043Z,84.08
2023-02-03T16:03:56.146Z,84.29
2023-02-03T16:06:30.331Z,83.80
2023-02-03T16:08:59.556Z,84.07
2023-02-03T16:11:33.537Z,83.79
2023-02-03T16:14:03.383Z,83.56
2023-02-03T16:16:36.267Z,84.03
2023-02-03T16:19:06.416Z,83.76
2023-02-03T16:21:52.813Z,83.46
2023-02-03T16:24:38.766Z,83.09
2023-02-03T16:27:31.420Z,83.83
2023-02-03T16:30:39.536Z,82.72
2023-02-03T16:33:32.780Z,83.79
2023-02-03T16:36:21.951Z,82.83
2023-02-03T16:39:09.751Z,83.16
2023-02-03T16:41:55.389Z,82.79
2023-02-03T16:44:40.699Z,82.92
2023-02-03T16:47:41.784Z,82.96
2023-02-03T16:50:38.292Z,83.07
2023-02-03T16:53:11.011Z,82.99
2023-02-03T16:55:40.048Z,83.07
2023-02-03T16:58:08.307Z,83.20
2023-02-03T17:00:36.301Z,82.97
2023-02-03T17:03:05.597Z,82.28
2023-02-03T17:05:38.027Z,82.80
2023-02-03T17:08:05.653Z,82.28
2023-02-03T17:10:35.265Z,82.44
2023-02-03T17:13:04.598Z,81.74
2023-02-03T17:15:32.555Z,82.22
2023-02-03T17:18:00.375Z,82.46
2023-02-03T17:20:28.097Z,82.70
2023-02-03T17:22:56.031Z,82.41
2023-02-03T17:25:23.793Z,82.43
2023-02-03T17:27:51.550Z,82.68
2023-02-03T17:30:20.822Z,82.17
2023-02-03T17:32:48.476Z,82.90
2023-02-03T17:35:16.337Z,82.69
2023-02-03T17:37:44.033Z,82.46
2023-02-03T17:54:06.061Z,82.94
2023-02-03T17:56:35.669Z,83.27
2023-02-03T17:59:05.427Z,82.66
2023-02-03T18:01:34.458Z,83.30
2023-02-03T18:04:04.604Z,82.82
2023-02-03T18:06:35.070Z,83.40
2023-02-03T18:09:02.778Z,83.19
2023-02-03T18:11:31.568Z,83.48
2023-02-03T18:13:59.322Z,83.09
2023-02-03T18:16:29.251Z,83.22
2023-02-03T18:18:58.316Z,83.25
2023-02-03T18:21:27.207Z,83.08
2023-02-03T18:23:59.349Z,83.26
2023-02-03T18:26:28.687Z,83.25
2023-02-03T18:28:56.637Z,83.43
2023-02-03T18:31:25.211Z,83.07
2023-02-03T18:33:53.671Z,83.05
2023-02-03T18:36:22.895Z,82.87
2023-02-03T18:38:50.563Z,82.88
2023-02-03T18:41:19.430Z,82.48
2023-02-03T18:43:49.346Z,82.42
2023-02-03T18:46:20.510Z,81.85
2023-02-03T18:48:48.624Z,82.15
2023-02-03T18:51:18.403Z,82.17
2023-02-03T18:53:49.121Z,81.78
2023-02-03T18:56:19.161Z,81.84
2023-02-03T18:58:47.235Z,81.27
2023-02-03T19:01:23.615Z,81.59
2023-02-03T19:03:51.916Z,81.98
2023-02-03T19:06:20.080Z,81.46
2023-02-03T19:08:49.152Z,81.30
2023-02-03T19:11:17.070Z,81.34
2023-02-03T19:13:45.084Z,81.54
2023-02-03T19:16:16.700Z,81.29
2023-02-03T19:18:44.585Z,80.91
2023-02-03T19:21:12.735Z,80.99
2023-02-03T19:23:42.073Z,80.84
2023-02-03T19:26:11.991Z,81.11
2023-02-03T19:28:39.932Z,80.47
2023-02-03T19:31:09.883Z,80.68
2023-02-03T19:33:38.148Z,80.59
2023-02-03T19:36:06.542Z,80.66
2023-02-03T19:38:34.235Z,80.71
2023-02-03T19:41:02.470Z,80.77
2023-02-03T19:43:32.315Z,80.67
2023-02-03T19:46:00.498Z,80.43
2023-02-03T19:48:28.207Z,80.16
2023-02-03T19:50:55.878Z,80.73
2023-02-03T19:53:24.254Z,80.67
2023-02-03T19:55:52.027Z,80.49
2023-02-03T19:58:19.789Z,79.88
2023-02-03T20:00:48.847Z,80.05
2023-02-03T20:03:17.621Z,80.08
2023-02-03T20:05:45.366Z,80.12
2023-02-03T20:08:14.832Z,80.53
2023-02-03T20:10:44.510Z,80.49
2023-02-03T20:13:12.686Z,80.29
2023-02-03T20:15:40.380Z,80.62
2023-02-03T20:18:09.629Z,80.43
2023-02-03T20:20:37.502Z,80.41
2023-02-03T20:23:05.253Z,79.87
2023-02-03T20:25:32.884Z,80.16
2023-02-03T20:28:02.468Z,80.04
2023-02-03T20:30:30.732Z,80.70
2023-02-03T20:32:58.825Z,80.98
2023-02-03T20:35:28.393Z,80.15
2023-02-03T20:37:56.210Z,80.19
2023-02-03T20:40:26.613Z,80.41
2023-02-03T20:42:54.628Z,80.36
2023-02-03T20:45:24.361Z,80.30
2023-02-03T20:47:52.339Z,79.94
2023-02-03T20:50:25.252Z,80.29
2023-02-03T20:52:58.033Z,79.76
2023-02-03T20:55:25.658Z,79.68
2023-02-03T20:57:55.818Z,80.27
2023-02-03T21:00:26.171Z,79.65
2023-02-03T21:03:12.269Z,79.57
2023-02-03T21:05:41.849Z,79.75
2023-02-03T21:08:15.697Z,79.62
2023-02-03T21:10:44.997Z,79.14
2023-02-03T21:13:21.106Z,79.74
2023-02-03T21:15:49.776Z,78.87
2023-02-03T21:18:33.758Z,79.06
2023-02-03T21:21:02.360Z,78.75
2023-02-03T21:23:39.778Z,78.43
2023-02-03T21:26:17.677Z,78.27
2023-02-03T21:28:45.817Z,78.36
2023-02-03T21:31:24.050Z,78.58
2023-02-03T21:33:52.882Z,78.52
2023-02-03T21:36:22.888Z,78.36
2023-02-03T21:38:53.565Z,78.49
2023-02-03T21:41:22.894Z,77.70
2023-02-03T21:43:52.480Z,77.97
2023-02-03T21:46:25.132Z,78.09
2023-02-03T21:48:55.417Z,77.67
2023-02-03T21:51:26.479Z,77.98
2023-02-03T21:53:57.973Z,77.75
2023-02-03T21:56:28.404Z,77.25
2023-02-03T21:58:58.989Z,77.85
2023-02-03T22:01:28.171Z,78.02
2023-02-03T22:03:58.852Z,77.71
2023-02-03T22:06:40.221Z,77.99
2023-02-03T22:09:12.160Z,77.69
2023-02-03T22:11:40.001Z,78.21
2023-02-03T22:14:08.301Z,77.99
2023-02-03T22:16:36.517Z,78.07
2023-02-03T22:19:04.400Z,78.30
2023-02-03T22:21:32.275Z,77.86
2023-02-03T22:24:00.096Z,78.31
2023-02-03T22:26:29.393Z,77.94
2023-02-03T22:28:57.192Z,78.42
2023-02-03T22:31:25.045Z,78.52
2023-02-03T22:33:52.877Z,78.48
2023-02-03T22:36:23.397Z,78.24
2023-02-03T22:38:51.201Z,78.39
2023-02-03T22:41:20.768Z,78.58
2023-02-03T22:43:49.940Z,78.88
2023-02-03T22:46:17.727Z,78.95
2023-02-03T22:48:45.553Z,78.56
2023-02-03T22:51:13.301Z,78.61
2023-02-03T22:53:41.013Z,78.15
2023-02-03T22:56:08.888Z,78.38
2023-02-03T22:58:36.626Z,78.07
2023-02-03T23:01:06.058Z,78.44
2023-02-03T23:03:33.910Z,78.23
2023-02-03T23:06:01.754Z,77.82
2023-02-03T23:08:29.442Z,77.96
2023-02-03T23:10:57.262Z,77.63
2023-02-03T23:13:25.286Z,77.98
2023-02-03T23:15:53.249Z,77.55
2023-02-03T23:18:22.283Z,78.19
2023-02-03T23:20:49.991Z,78.13
2023-02-03T23:23:17.691Z,77.93
2023-02-03T23:25:46.282Z,77.89
2023-02-03T23:28:14.146Z,78.32
2023-02-03T23:30:41.978Z,78.33
2023-02-03T23:33:09.746Z,78.12
2023-02-03T23:35:46.603Z,78.11
2023-02-03T23:38:14.914Z,77.89
2023-02-03T23:40:42.712Z,78.28
2023-02-03T23:43:10.435Z,78.24
2023-02-03T23:45:38.224Z,78.33
2023-02-03T23:48:06.802Z,78.04
2023-02-03T23:50:34.660Z,77.67
2023-02-03T23:53:03.785Z,77.80
2023-02-03T23:55:31.567Z,78.10
2023-02-03T23:57:59.280Z,78.01
